Time;durP1;ratioP1;P1;durP2;ratioP2;P2;SDS_P1;SDS_P2;PMS_P1;PMS_P2;Temp;Humidity;BMP_temperature;BMP_pressure;BME280_temperature;BME280_humidity;BME280_pressure;Samples;Min_cycle;Max_cycle;Signal;HPM_P1;HPM_P2
2022/01/21 00:01:31;;;;;;;2.07;0.60;;;;;;;;;;5070448;28;20480;-63
2022/01/21 00:03:58;;;;;;;2.80;0.57;;;;;;;;;;5070532;28;20432;-63
2022/01/21 00:06:24;;;;;;;2.23;0.60;;;;;;;;;;5071156;28;20463;-63
2022/01/21 00:08:51;;;;;;;1.10;0.30;;;;;;;;;;5071104;28;20436;-63
2022/01/21 00:11:18;;;;;;;2.03;0.40;;;;;;;;;;5070441;28;20444;-64
2022/01/21 00:13:45;;;;;;;6.07;0.70;;;;;;;;;;5064697;28;20960;-63
2022/01/21 00:16:12;;;;;;;1.83;0.70;;;;;;;;;;5050960;28;20445;-63
2022/01/21 00:18:42;;;;;;;3.17;0.60;;;;;;;;;;5069573;28;20510;-63
2022/01/21 00:32:09;;;;;;;2.73;0.63;;;;;;;;;;5070148;28;20444;-63
2022/01/21 00:34:36;;;;;;;5.83;1.00;;;;;;;;;;5070223;28;20878;-64
2022/01/21 00:37:03;;;;;;;2.57;0.53;;;;;;;;;;5049635;28;20446;-63
2022/01/21 00:39:32;;;;;;;1.40;0.73;;;;;;;;;;5059576;28;20472;-63
2022/01/21 00:44:37;;;;;;;4.83;0.70;;;;;;;;;;5069050;28;20428;-63
2022/01/21 00:47:04;;;;;;;3.10;0.73;;;;;;;;;;5069414;28;20866;-63
2022/01/21 00:49:31;;;;;;;3.33;0.70;;;;;;;;;;5070147;28;20444;-63
2022/01/21 00:51:58;;;;;;;6.13;0.73;;;;;;;;;;5069949;28;20468;-63
2022/01/21 00:54:25;;;;;;;2.20;0.60;;;;;;;;;;5070162;28;20505;-63
2022/01/21 00:56:51;;;;;;;4.00;0.63;;;;;;;;;;5051273;28;20653;-63
2022/01/21 00:59:18;;;;;;;2.10;0.60;;;;;;;;;;5051987;28;20462;-63
2022/01/21 01:01:45;;;;;;;1.40;0.50;;;;;;;;;;5069054;28;20939;-63
2022/01/21 01:39:45;;;;;;;1.27;0.53;;;;;;;;;;5056764;28;20757;-63
2022/01/21 01:50:30;;;;;;;1.03;0.50;;;;;;;;;;5051766;28;20474;-63
2022/01/21 01:52:57;;;;;;;4.13;0.60;;;;;;;;;;5037463;28;20442;-63
2022/01/21 01:55:23;;;;;;;3.17;0.70;;;;;;;;;;5049314;28;20938;-63
2022/01/21 01:57:50;;;;;;;1.93;0.53;;;;;;;;;;5046997;28;20444;-66
2022/01/21 02:00:16;;;;;;;1.33;0.50;;;;;;;;;;5034395;28;20444;-63
2022/01/21 02:02:43;;;;;;;3.17;0.73;;;;;;;;;;5067501;28;20484;-63
2022/01/21 02:05:10;;;;;;;2.30;0.50;;;;;;;;;;5068991;28;20439;-64
2022/01/21 02:07:40;;;;;;;1.30;0.50;;;;;;;;;;5050444;28;20528;-63
2022/01/21 02:10:07;;;;;;;1.70;0.40;;;;;;;;;;5050789;28;20449;-63
2022/01/21 02:12:34;;;;;;;2.50;0.60;;;;;;;;;;5050577;28;20842;-63
2022/01/21 02:15:02;;;;;;;2.23;0.43;;;;;;;;;;5050989;28;20440;-63
2022/01/21 02:22:44;;;;;;;3.93;0.80;;;;;;;;;;5059600;28;20873;-64
2022/01/21 02:25:18;;;;;;;2.13;0.63;;;;;;;;;;5056040;28;20822;-63
2022/01/21 02:27:51;;;;;;;3.57;0.70;;;;;;;;;;5050161;28;20526;-63
2022/01/21 02:30:18;;;;;;;2.70;0.70;;;;;;;;;;5050141;28;20440;-64
2022/01/21 02:32:50;;;;;;;1.00;0.77;;;;;;;;;;5047510;28;20499;-63
2022/01/21 02:35:16;;;;;;;2.27;0.60;;;;;;;;;;5050037;28;20441;-63
2022/01/21 02:37:43;;;;;;;4.07;0.73;;;;;;;;;;5055839;28;20499;-63
2022/01/21 02:40:10;;;;;;;2.77;0.50;;;;;;;;;;5030478;28;20512;-63
2022/01/21 02:42:38;;;;;;;3.07;0.53;;;;;;;;;;5041516;28;20442;-63
2022/01/21 02:45:05;;;;;;;3.40;0.47;;;;;;;;;;5050294;28;20436;-64
2022/01/21 02:47:32;;;;;;;2.73;0.80;;;;;;;;;;5049892;28;20559;-63
2022/01/21 02:49:59;;;;;;;5.00;0.60;;;;;;;;;;5048679;28;20493;-64
2022/01/21 02:52:28;;;;;;;2.07;0.50;;;;;;;;;;5049937;28;20440;-63
2022/01/21 02:54:55;;;;;;;2.33;0.57;;;;;;;;;;5047545;28;20491;-64
2022/01/21 02:57:22;;;;;;;1.53;0.50;;;;;;;;;;5049826;28;20436;-63
2022/01/21 02:59:49;;;;;;;3.43;1.00;;;;;;;;;;5029972;28;20456;-63
2022/01/21 03:02:15;;;;;;;1.17;0.70;;;;;;;;;;5030422;28;20778;-65
2022/01/21 03:05:00;;;;;;;2.03;0.63;;;;;;;;;;5067425;28;20447;-63
2022/01/21 03:07:27;;;;;;;1.20;0.47;;;;;;;;;;5049993;28;20490;-63
2022/01/21 03:09:53;;;;;;;3.07;0.60;;;;;;;;;;5049797;28;21007;-63
2022/01/21 03:12:21;;;;;;;3.17;0.67;;;;;;;;;;5048945;28;20448;-63
2022/01/21 03:14:49;;;;;;;2.63;0.40;;;;;;;;;;5067469;28;20440;-63
2022/01/21 03:17:16;;;;;;;7.53;0.73;;;;;;;;;;5067315;28;20810;-64
2022/01/21 03:19:42;;;;;;;4.07;0.73;;;;;;;;;;5049411;28;20474;-63
2022/01/21 03:22:09;;;;;;;3.10;0.60;;;;;;;;;;5049615;28;20535;-64
2022/01/21 03:24:36;;;;;;;1.70;0.50;;;;;;;;;;5049507;28;20439;-63
2022/01/21 03:27:03;;;;;;;1.57;0.60;;;;;;;;;;5049629;28;20468;-63
2022/01/21 03:29:29;;;;;;;4.30;0.67;;;;;;;;;;5049703;28;20436;-63
2022/01/21 03:31:56;;;;;;;1.33;0.57;;;;;;;;;;5049228;28;20440;-63
2022/01/21 03:34:23;;;;;;;3.93;0.50;;;;;;;;;;5029615;28;20532;-63
2022/01/21 03:36:53;;;;;;;1.97;0.40;;;;;;;;;;5030116;28;21014;-63
2022/01/21 03:39:20;;;;;;;2.70;0.63;;;;;;;;;;5065385;28;20555;-62
2022/01/21 03:41:47;;;;;;;2.93;0.53;;;;;;;;;;5065171;28;20487;-64
2022/01/21 03:44:16;;;;;;;5.50;0.53;;;;;;;;;;5049759;28;20447;-63
2022/01/21 03:46:44;;;;;;;2.07;0.87;;;;;;;;;;5049040;28;20559;-63
2022/01/21 03:49:10;;;;;;;4.00;0.70;;;;;;;;;;5049496;28;20436;-63
2022/01/21 03:51:38;;;;;;;3.90;0.93;;;;;;;;;;5049455;28;20436;-63
2022/01/21 03:54:05;;;;;;;1.23;0.70;;;;;;;;;;5049697;28;20961;-63
2022/01/21 03:56:32;;;;;;;1.03;0.40;;;;;;;;;;5048992;28;20498;-63
2022/01/21 03:58:58;;;;;;;3.97;0.63;;;;;;;;;;5067082;28;20443;-63
2022/01/21 04:01:28;;;;;;;3.80;0.70;;;;;;;;;;5049755;28;21004;-63
2022/01/21 04:03:55;;;;;;;1.53;0.40;;;;;;;;;;5052691;28;20958;-64
2022/01/21 04:06:21;;;;;;;3.27;0.77;;;;;;;;;;5053080;28;20791;-63
2022/01/21 04:08:48;;;;;;;2.73;0.70;;;;;;;;;;5070694;28;20444;-63
2022/01/21 04:11:14;;;;;;;3.43;0.60;;;;;;;;;;5052838;28;20441;-64
2022/01/21 04:13:46;;;;;;;4.23;2.40;;;;;;;;;;5053722;28;20441;-63
2022/01/21 04:16:18;;;;;;;7.17;4.60;;;;;;;;;;5048212;28;20444;-65
2022/01/21 04:18:46;;;;;;;7.23;2.80;;;;;;;;;;5051652;28;20562;-66
2022/01/21 04:21:14;;;;;;;4.23;1.47;;;;;;;;;;5054532;28;21116;-68
2022/01/21 04:23:40;;;;;;;3.03;0.70;;;;;;;;;;5050678;28;20570;-65
2022/01/21 04:26:11;;;;;;;3.27;0.60;;;;;;;;;;5054261;28;20448;-69
2022/01/21 04:28:38;;;;;;;4.37;1.23;;;;;;;;;;5056324;28;21191;-67
2022/01/21 04:31:06;;;;;;;2.57;0.77;;;;;;;;;;5058207;28;20490;-69
2022/01/21 04:33:41;;;;;;;1.23;0.53;;;;;;;;;;5053203;28;20447;-69
2022/01/21 04:36:08;;;;;;;1.77;0.60;;;;;;;;;;5058292;28;20824;-69
2022/01/21 04:38:37;;;;;;;2.43;0.73;;;;;;;;;;5060738;28;20538;-67
2022/01/21 04:41:24;;;;;;;4.17;1.00;;;;;;;;;;5063164;28;20471;-68
2022/01/21 04:49:23;;;;;;;2.83;1.03;;;;;;;;;;5048323;28;20459;-68
2022/01/21 04:52:02;;;;;;;4.77;2.27;;;;;;;;;;5055873;28;20980;-69
2022/01/21 04:54:48;;;;;;;2.20;0.80;;;;;;;;;;5055631;28;21365;-70
2022/01/21 04:57:15;;;;;;;6.77;3.23;;;;;;;;;;5057020;28;20504;-68
2022/01/21 04:59:42;;;;;;;2.30;0.93;;;;;;;;;;5055207;28;20470;-68
2022/01/21 05:02:09;;;;;;;65.90;27.30;;;;;;;;;;5053277;28;20441;-69
2022/01/21 05:04:36;;;;;;;9.73;3.57;;;;;;;;;;5051194;28;20428;-70
2022/01/21 05:07:06;;;;;;;80.80;29.17;;;;;;;;;;5039024;28;21024;-68
2022/01/21 05:09:34;;;;;;;1.27;0.60;;;;;;;;;;5045826;28;20447;-70
2022/01/21 05:12:03;;;;;;;5.53;1.53;;;;;;;;;;5049668;28;20472;-70
2022/01/21 05:14:48;;;;;;;8.17;2.60;;;;;;;;;;5041109;28;20447;-71
2022/01/21 05:17:26;;;;;;;6.70;3.03;;;;;;;;;;4971716;23;43153;-71
2022/01/21 05:19:53;;;;;;;4.23;1.00;;;;;;;;;;4938567;28;20461;-72
2022/01/21 05:22:43;;;;;;;5.67;2.07;;;;;;;;;;4956218;28;20477;-72
2022/01/21 05:25:16;;;;;;;4.03;1.30;;;;;;;;;;4941195;28;20512;-70
2022/01/21 05:27:45;;;;;;;21.90;10.50;;;;;;;;;;4937820;28;20496;-68
2022/01/21 05:30:12;;;;;;;4.77;1.80;;;;;;;;;;4941745;28;20496;-70
2022/01/21 05:32:51;;;;;;;1.57;0.67;;;;;;;;;;4940307;28;20478;-70
2022/01/21 05:35:50;;;;;;;2.67;0.73;;;;;;;;;;4923091;28;37332;-68
2022/01/21 05:38:33;;;;;;;5.47;0.80;;;;;;;;;;4935236;28;220918;-69
2022/01/21 05:41:26;;;;;;;2.60;0.90;;;;;;;;;;4922570;28;39058;-70
2022/01/21 05:44:14;;;;;;;2.13;0.53;;;;;;;;;;4938092;28;21015;-70
2022/01/21 05:46:57;;;;;;;2.87;0.70;;;;;;;;;;4910640;28;20488;-69
2022/01/21 05:49:44;;;;;;;2.87;0.60;;;;;;;;;;4926042;28;20448;-70
2022/01/21 05:52:41;;;;;;;2.17;0.53;;;;;;;;;;4911834;28;20484;-71
2022/01/21 05:55:21;;;;;;;2.53;0.70;;;;;;;;;;4916433;28;215855;-70
2022/01/21 05:58:12;;;;;;;2.90;0.60;;;;;;;;;;4911389;28;20472;-71
2022/01/21 06:00:42;;;;;;;2.87;0.50;;;;;;;;;;4889031;28;20491;-69
2022/01/21 06:03:10;;;;;;;3.20;0.57;;;;;;;;;;4909723;28;20879;-71
2022/01/21 06:05:36;;;;;;;2.67;0.90;;;;;;;;;;4894245;28;25220;-70
2022/01/21 06:08:03;;;;;;;7.13;2.37;;;;;;;;;;4924670;28;28851;-71
2022/01/21 06:10:30;;;;;;;2.57;0.90;;;;;;;;;;4927536;28;213535;-72
2022/01/21 06:12:57;;;;;;;1.87;0.80;;;;;;;;;;4924103;28;215047;-70
2022/01/21 06:15:24;;;;;;;3.10;0.80;;;;;;;;;;4943676;28;20244;-72
2022/01/21 06:17:51;;;;;;;3.60;0.80;;;;;;;;;;4937880;28;36305;-72
2022/01/21 06:20:17;;;;;;;2.57;0.73;;;;;;;;;;4944047;28;20531;-70
2022/01/21 06:22:44;;;;;;;1.87;0.70;;;;;;;;;;4944457;28;20468;-69
2022/01/21 06:25:11;;;;;;;1.20;0.60;;;;;;;;;;4921317;28;20484;-70
2022/01/21 06:27:39;;;;;;;3.00;0.90;;;;;;;;;;4929747;28;20478;-71
2022/01/21 06:30:12;;;;;;;4.27;1.10;;;;;;;;;;4943524;28;20462;-69
2022/01/21 06:32:39;;;;;;;4.40;0.73;;;;;;;;;;4942682;28;21873;-70
2022/01/21 06:35:06;;;;;;;1.00;0.77;;;;;;;;;;4940352;28;215869;-71
2022/01/21 06:37:33;;;;;;;2.60;0.77;;;;;;;;;;4940060;28;20260;-68
2022/01/21 06:39:59;;;;;;;2.43;0.80;;;;;;;;;;4942261;28;21021;-72
2022/01/21 06:42:28;;;;;;;2.57;0.67;;;;;;;;;;4943583;28;20463;-70
2022/01/21 06:44:54;;;;;;;2.33;0.70;;;;;;;;;;4945869;28;20459;-69
2022/01/21 06:47:21;;;;;;;3.00;0.77;;;;;;;;;;4943280;28;20471;-69
2022/01/21 06:49:48;;;;;;;4.57;0.80;;;;;;;;;;4949422;28;20464;-69
2022/01/21 06:52:15;;;;;;;3.60;0.87;;;;;;;;;;4944643;28;20451;-69
2022/01/21 06:54:42;;;;;;;5.87;1.87;;;;;;;;;;4938881;28;20468;-70
2022/01/21 06:57:08;;;;;;;3.60;1.73;;;;;;;;;;4942483;28;20456;-70
2022/01/21 06:59:35;;;;;;;5.97;2.00;;;;;;;;;;4942616;28;20532;-70
2022/01/21 07:02:01;;;;;;;4.87;0.97;;;;;;;;;;4944373;28;20543;-70
2022/01/21 07:04:28;;;;;;;6.93;3.70;;;;;;;;;;4941369;28;20465;-69
2022/01/21 07:06:57;;;;;;;2.50;0.97;;;;;;;;;;4943718;28;21041;-69
2022/01/21 07:09:25;;;;;;;6.10;2.93;;;;;;;;;;4941795;28;20531;-70
2022/01/21 07:12:35;;;;;;;3.67;2.40;;;;;;;;;;4937781;28;20472;-69
2022/01/21 07:15:25;;;;;;;10.77;6.43;;;;;;;;;;5005340;27;1292601;-69
2022/01/21 07:17:53;;;;;;;4.40;2.67;;;;;;;;;;5039803;28;20315;-68
2022/01/21 07:20:20;;;;;;;9.63;4.03;;;;;;;;;;5045848;28;41867;-68
2022/01/21 07:22:47;;;;;;;7.33;2.80;;;;;;;;;;5040478;28;20467;-65
2022/01/21 07:25:14;;;;;;;3.57;2.00;;;;;;;;;;5053017;28;20452;-67
2022/01/21 07:27:42;;;;;;;31.03;15.33;;;;;;;;;;5048573;28;20455;-65
2022/01/21 07:30:08;;;;;;;6.53;2.70;;;;;;;;;;5062190;28;21079;-68
2022/01/21 07:32:35;;;;;;;9.30;4.00;;;;;;;;;;5059930;28;20459;-68
2022/01/21 07:35:02;;;;;;;15.43;6.97;;;;;;;;;;5049982;28;75968;-68
2022/01/21 07:37:28;;;;;;;6.83;2.13;;;;;;;;;;5022274;28;20479;-68
2022/01/21 07:39:55;;;;;;;4.83;2.13;;;;;;;;;;5048287;28;20472;-68
2022/01/21 07:42:22;;;;;;;7.07;3.10;;;;;;;;;;5056568;28;20985;-67
2022/01/21 07:44:49;;;;;;;9.57;3.77;;;;;;;;;;5054042;28;20467;-66
2022/01/21 07:47:16;;;;;;;11.10;5.97;;;;;;;;;;5037568;28;20444;-67
2022/01/21 07:49:43;;;;;;;7.47;3.57;;;;;;;;;;5049110;28;23778;-68
2022/01/21 07:52:10;;;;;;;5.50;1.80;;;;;;;;;;5049294;28;20468;-67
2022/01/21 07:54:37;;;;;;;5.77;2.40;;;;;;;;;;5048679;28;20476;-68
2022/01/21 07:57:04;;;;;;;8.43;2.33;;;;;;;;;;5037577;28;20463;-67
2022/01/21 07:59:31;;;;;;;8.53;3.00;;;;;;;;;;5044808;28;20531;-68
2022/01/21 08:01:58;;;;;;;7.33;2.40;;;;;;;;;;5051177;28;20526;-69
2022/01/21 08:04:26;;;;;;;6.13;1.83;;;;;;;;;;5031322;28;20463;-67
2022/01/21 08:06:53;;;;;;;5.67;1.73;;;;;;;;;;5055310;28;20957;-68
2022/01/21 08:09:24;;;;;;;12.27;2.90;;;;;;;;;;5049618;28;20488;-69
2022/01/21 08:11:51;;;;;;;3.60;1.20;;;;;;;;;;5043172;28;20463;-67
2022/01/21 08:14:18;;;;;;;4.63;2.10;;;;;;;;;;5047176;28;20495;-68
2022/01/21 08:16:45;;;;;;;2.73;1.53;;;;;;;;;;5067385;28;20447;-69
2022/01/21 08:19:13;;;;;;;4.33;1.60;;;;;;;;;;5066333;28;20492;-70
2022/01/21 08:21:40;;;;;;;4.17;1.30;;;;;;;;;;5048572;28;21088;-68
2022/01/21 08:24:07;;;;;;;5.20;1.20;;;;;;;;;;5072273;27;20964;-67
2022/01/21 08:26:35;;;;;;;4.13;1.10;;;;;;;;;;5052373;28;20455;-68
2022/01/21 08:29:02;;;;;;;3.40;1.20;;;;;;;;;;5039728;28;20451;-68
2022/01/21 08:31:29;;;;;;;2.80;1.20;;;;;;;;;;5053594;28;21427;-68
2022/01/21 08:33:56;;;;;;;4.43;1.30;;;;;;;;;;5061957;28;20467;-68
2022/01/21 08:36:23;;;;;;;5.03;1.47;;;;;;;;;;5061359;28;20459;-68
2022/01/21 08:38:50;;;;;;;3.97;1.20;;;;;;;;;;5053782;28;20495;-67
2022/01/21 08:41:17;;;;;;;5.57;1.77;;;;;;;;;;5038647;28;24734;-69
2022/01/21 08:43:44;;;;;;;2.93;1.30;;;;;;;;;;5035371;28;20465;-69
2022/01/21 08:46:11;;;;;;;3.10;1.17;;;;;;;;;;5059155;28;21095;-69
2022/01/21 08:48:38;;;;;;;4.37;1.50;;;;;;;;;;5049464;28;52109;-69
2022/01/21 08:51:10;;;;;;;3.57;1.03;;;;;;;;;;5053189;28;20535;-69
2022/01/21 08:53:38;;;;;;;5.00;1.23;;;;;;;;;;5021066;28;21612;-69
2022/01/21 08:56:06;;;;;;;6.50;1.50;;;;;;;;;;5051703;28;20463;-69
2022/01/21 08:58:32;;;;;;;3.30;1.10;;;;;;;;;;5034541;28;20551;-68
2022/01/21 09:00:59;;;;;;;2.87;1.07;;;;;;;;;;5050524;28;20455;-68
2022/01/21 09:03:26;;;;;;;4.63;1.20;;;;;;;;;;5052836;28;20644;-67
2022/01/21 09:05:53;;;;;;;4.13;1.00;;;;;;;;;;5050851;28;20463;-68
2022/01/21 09:08:22;;;;;;;5.40;1.27;;;;;;;;;;5030657;28;43802;-67
2022/01/21 09:10:50;;;;;;;3.20;1.00;;;;;;;;;;5038493;28;20856;-66
2022/01/21 09:13:17;;;;;;;4.63;1.60;;;;;;;;;;5061931;28;20499;-67
2022/01/21 09:15:43;;;;;;;2.67;0.80;;;;;;;;;;5056147;28;20478;-68
2022/01/21 09:18:17;;;;;;;2.63;1.40;;;;;;;;;;5053758;28;20471;-66
2022/01/21 09:20:44;;;;;;;4.07;1.30;;;;;;;;;;5052650;28;20466;-67
2022/01/21 09:23:11;;;;;;;3.60;0.97;;;;;;;;;;5053331;28;20588;-67
2022/01/21 09:25:38;;;;;;;4.20;1.60;;;;;;;;;;5054935;28;20466;-68
2022/01/21 09:28:05;;;;;;;2.07;1.07;;;;;;;;;;5055417;28;20460;-66
2022/01/21 09:30:32;;;;;;;4.27;1.30;;;;;;;;;;5057563;28;20551;-67
2022/01/21 09:32:59;;;;;;;3.40;1.43;;;;;;;;;;5052961;28;22890;-66
2022/01/21 09:35:27;;;;;;;5.20;1.20;;;;;;;;;;5057133;28;20475;-67
2022/01/21 09:37:54;;;;;;;4.27;1.67;;;;;;;;;;5041155;28;20455;-66
2022/01/21 09:40:45;;;;;;;3.97;1.30;;;;;;;;;;5054618;28;20575;-66
2022/01/21 09:43:13;;;;;;;0.87;0.57;;;;;;;;;;5035035;28;20455;-67
2022/01/21 09:45:41;;;;;;;4.80;1.23;;;;;;;;;;5055340;28;20467;-71
2022/01/21 09:48:10;;;;;;;3.53;1.43;;;;;;;;;;5049920;28;20467;-67
2022/01/21 09:50:40;;;;;;;2.73;1.00;;;;;;;;;;5049718;28;20509;-69
2022/01/21 09:53:07;;;;;;;3.40;0.83;;;;;;;;;;5053002;28;20483;-68
2022/01/21 09:55:33;;;;;;;2.07;0.90;;;;;;;;;;5056579;28;20482;-68
2022/01/21 09:58:01;;;;;;;7.03;2.23;;;;;;;;;;5058539;28;20443;-67
2022/01/21 10:00:28;;;;;;;5.40;1.33;;;;;;;;;;5051570;28;20550;-66
2022/01/21 10:03:01;;;;;;;3.13;1.07;;;;;;;;;;5048464;28;20309;-67
2022/01/21 10:05:28;;;;;;;2.53;1.20;;;;;;;;;;5043456;28;20678;-66
2022/01/21 10:07:54;;;;;;;5.73;1.20;;;;;;;;;;5036290;28;41365;-67
2022/01/21 10:10:21;;;;;;;2.97;1.30;;;;;;;;;;5040746;27;20467;-68
2022/01/21 10:12:49;;;;;;;3.87;0.80;;;;;;;;;;5052487;28;20453;-67
2022/01/21 10:15:16;;;;;;;5.40;1.70;;;;;;;;;;5053149;28;20549;-66
2022/01/21 10:18:01;;;;;;;3.63;1.67;;;;;;;;;;5052218;28;20529;-68
2022/01/21 10:20:37;;;;;;;3.63;0.93;;;;;;;;;;5052634;28;20459;-69
2022/01/21 10:23:07;;;;;;;2.23;1.20;;;;;;;;;;5048617;28;46024;-70
2022/01/21 10:25:37;;;;;;;4.03;1.50;;;;;;;;;;5051513;28;20975;-68
2022/01/21 10:28:07;;;;;;;5.03;1.67;;;;;;;;;;5038545;28;20468;-66
2022/01/21 10:30:34;;;;;;;2.87;1.30;;;;;;;;;;5051761;28;20628;-67
2022/01/21 10:33:01;;;;;;;3.53;1.23;;;;;;;;;;5052834;28;21072;-65
2022/01/21 10:35:32;;;;;;;5.77;0.83;;;;;;;;;;5041693;28;21144;-64
2022/01/21 10:38:15;;;;;;;3.13;0.73;;;;;;;;;;5054674;28;20455;-68
2022/01/21 10:40:41;;;;;;;2.10;0.90;;;;;;;;;;5051894;27;20576;-66
2022/01/21 10:43:18;;;;;;;2.23;0.97;;;;;;;;;;5039207;28;20540;-68
2022/01/21 10:46:03;;;;;;;2.33;1.20;;;;;;;;;;5058306;27;20813;-66
2022/01/21 10:48:53;;;;;;;4.53;1.57;;;;;;;;;;5052069;28;25862;-67
2022/01/21 10:51:23;;;;;;;1.00;0.50;;;;;;;;;;5046053;28;20992;-66
2022/01/21 10:53:50;;;;;;;4.07;0.90;;;;;;;;;;5056372;28;20451;-66
2022/01/21 10:56:17;;;;;;;5.20;1.83;;;;;;;;;;5057611;28;20597;-66
2022/01/21 10:58:44;;;;;;;5.70;2.40;;;;;;;;;;5053834;27;20455;-67
2022/01/21 11:01:16;;;;;;;8.93;3.50;;;;;;;;;;5051752;28;25600;-66
2022/01/21 11:03:56;;;;;;;4.63;1.20;;;;;;;;;;5055593;28;21803;-66
2022/01/21 11:06:25;;;;;;;5.13;1.50;;;;;;;;;;5049911;28;46724;-67
2022/01/21 11:09:12;;;;;;;4.97;1.33;;;;;;;;;;5049911;28;20459;-66
2022/01/21 11:11:39;;;;;;;3.10;0.97;;;;;;;;;;5070757;27;21075;-66
2022/01/21 11:14:09;;;;;;;3.90;0.97;;;;;;;;;;5054883;28;20455;-67
2022/01/21 11:16:37;;;;;;;8.30;2.90;;;;;;;;;;5051108;28;61583;-68
2022/01/21 11:19:25;;;;;;;7.47;2.67;;;;;;;;;;5053257;28;45934;-68
2022/01/21 11:21:54;;;;;;;4.77;1.50;;;;;;;;;;5048806;28;20523;-67
2022/01/21 11:24:22;;;;;;;4.70;1.77;;;;;;;;;;5041494;28;20531;-68
2022/01/21 11:27:04;;;;;;;4.50;1.50;;;;;;;;;;5039218;28;20589;-68
2022/01/21 11:29:32;;;;;;;4.80;1.50;;;;;;;;;;5049714;28;20482;-65
2022/01/21 11:31:58;;;;;;;2.07;1.20;;;;;;;;;;5053323;28;20463;-67
2022/01/21 11:34:26;;;;;;;3.60;1.40;;;;;;;;;;5041851;28;20560;-67
2022/01/21 11:36:52;;;;;;;4.27;1.87;;;;;;;;;;5057177;28;20470;-66
2022/01/21 11:39:21;;;;;;;6.03;2.47;;;;;;;;;;5049125;28;20459;-68
2022/01/21 11:41:49;;;;;;;6.67;3.10;;;;;;;;;;5034907;28;56918;-68
2022/01/21 11:44:16;;;;;;;4.37;1.97;;;;;;;;;;5037096;28;21480;-67
2022/01/21 11:46:58;;;;;;;4.23;1.90;;;;;;;;;;5047188;28;21021;-66
2022/01/21 11:49:26;;;;;;;4.00;1.10;;;;;;;;;;5038414;28;20458;-68
2022/01/21 11:52:12;;;;;;;6.07;2.87;;;;;;;;;;5053176;28;20579;-67
2022/01/21 11:54:39;;;;;;;3.97;2.33;;;;;;;;;;5054382;28;20476;-67
2022/01/21 11:57:06;;;;;;;5.63;2.20;;;;;;;;;;5004998;28;1204064;-66
2022/01/21 11:59:41;;;;;;;6.40;2.83;;;;;;;;;;5046851;28;21439;-68
2022/01/21 12:02:24;;;;;;;11.47;5.37;;;;;;;;;;5047329;28;20459;-68
2022/01/21 12:04:52;;;;;;;22.30;9.87;;;;;;;;;;5033192;28;20229;-69
2022/01/21 12:07:34;;;;;;;13.17;5.70;;;;;;;;;;5056254;28;27366;-69
2022/01/21 12:10:02;;;;;;;8.10;4.07;;;;;;;;;;5057152;28;20495;-70
2022/01/21 12:12:44;;;;;;;4.87;2.17;;;;;;;;;;5039014;28;20470;-69
2022/01/21 12:20:43;;;;;;;5.97;2.43;;;;;;;;;;5057935;28;20608;-68
2022/01/21 12:23:14;;;;;;;7.20;2.27;;;;;;;;;;5036706;28;54517;-68
2022/01/21 12:26:00;;;;;;;3.23;1.60;;;;;;;;;;5047647;28;20977;-68
2022/01/21 12:28:27;;;;;;;7.00;2.60;;;;;;;;;;5073785;28;20449;-68
2022/01/21 12:30:54;;;;;;;14.33;4.77;;;;;;;;;;5028097;28;20520;-68
2022/01/21 12:36:29;;;;;;;6.67;2.30;;;;;;;;;;5057022;28;20483;-68
2022/01/21 12:41:26;;;;;;;4.30;2.00;;;;;;;;;;5050615;28;21489;-68
2022/01/21 12:44:05;;;;;;;4.00;1.27;;;;;;;;;;5053233;28;20463;-69
2022/01/21 12:46:36;;;;;;;4.40;1.17;;;;;;;;;;5058549;28;29964;-68
2022/01/21 12:49:34;;;;;;;3.60;1.30;;;;;;;;;;4875754;28;5089722;-69
2022/01/21 12:52:43;;;;;;;3.87;1.03;;;;;;;;;;5046235;28;20225;-69
2022/01/21 12:57:55;;;;;;;10.00;2.70;;;;;;;;;;5026521;28;26238;-69
2022/01/21 13:00:21;;;;;;;11.60;4.73;;;;;;;;;;5034405;28;20233;-69
2022/01/21 13:02:49;;;;;;;2.93;1.63;;;;;;;;;;5061998;27;20795;-69
2022/01/21 13:05:17;;;;;;;4.33;2.30;;;;;;;;;;5025535;28;21011;-69
2022/01/21 13:07:43;;;;;;;4.27;1.20;;;;;;;;;;5053960;28;20459;-69
2022/01/21 13:10:22;;;;;;;4.90;1.23;;;;;;;;;;5049909;28;20454;-69
2022/01/21 13:13:02;;;;;;;2.97;1.50;;;;;;;;;;5049132;28;20462;-69
2022/01/21 13:15:42;;;;;;;3.17;1.47;;;;;;;;;;5051006;28;20455;-69
2022/01/21 13:18:25;;;;;;;4.73;1.63;;;;;;;;;;5052610;28;20612;-69
2022/01/21 13:20:53;;;;;;;21.10;10.10;;;;;;;;;;5057071;28;20446;-69
2022/01/21 13:23:29;;;;;;;3.07;1.60;;;;;;;;;;5041187;28;20471;-69
2022/01/21 13:26:18;;;;;;;2.50;0.80;;;;;;;;;;5039474;28;31074;-69
2022/01/21 13:28:55;;;;;;;2.30;0.83;;;;;;;;;;5056513;27;20457;-69
2022/01/21 13:31:22;;;;;;;2.63;1.23;;;;;;;;;;5052158;28;24174;-69
2022/01/21 13:33:49;;;;;;;2.27;1.07;;;;;;;;;;5027757;28;42716;-69
2022/01/21 13:36:36;;;;;;;5.43;1.10;;;;;;;;;;5011817;28;20554;-69
2022/01/21 13:39:16;;;;;;;3.70;1.33;;;;;;;;;;5029838;28;20461;-69
2022/01/21 13:41:49;;;;;;;8.67;3.10;;;;;;;;;;5048150;28;20451;-69
2022/01/21 13:44:27;;;;;;;6.32;2.70;;;;;;;;;;4887386;28;4185515;-69
2022/01/21 13:46:54;;;;;;;6.47;2.20;;;;;;;;;;4921947;28;3747268;-68
2022/01/21 13:49:22;;;;;;;7.37;3.30;;;;;;;;;;5054056;28;20233;-69
2022/01/21 13:52:06;;;;;;;6.30;2.93;;;;;;;;;;5055531;28;20478;-69
2022/01/21 13:54:35;;;;;;;2.70;1.03;;;;;;;;;;5080100;28;20230;-69
2022/01/21 13:57:02;;;;;;;3.63;1.57;;;;;;;;;;5050320;28;20555;-69
2022/01/21 13:59:30;;;;;;;6.73;2.10;;;;;;;;;;5046909;28;20460;-70
2022/01/21 14:02:10;;;;;;;3.13;1.60;;;;;;;;;;5060442;28;20509;-69
2022/01/21 14:04:38;;;;;;;7.87;4.27;;;;;;;;;;5033135;28;20528;-69
2022/01/21 14:07:19;;;;;;;4.20;1.07;;;;;;;;;;5050103;28;20466;-69
2022/01/21 14:09:46;;;;;;;3.47;1.97;;;;;;;;;;5047583;28;20452;-69
2022/01/21 14:12:13;;;;;;;4.87;2.30;;;;;;;;;;5052787;28;20483;-69
2022/01/21 14:14:41;;;;;;;4.97;1.80;;;;;;;;;;5046125;28;20452;-69
2022/01/21 14:17:08;;;;;;;5.03;2.37;;;;;;;;;;5055702;28;20491;-69
2022/01/21 14:19:37;;;;;;;6.73;2.47;;;;;;;;;;5043551;28;20452;-69
2022/01/21 14:22:05;;;;;;;6.93;2.20;;;;;;;;;;5065512;28;20448;-69
2022/01/21 14:24:33;;;;;;;6.73;3.73;;;;;;;;;;5061200;28;20466;-69
2022/01/21 14:27:01;;;;;;;4.67;1.77;;;;;;;;;;5036517;28;20469;-69
2022/01/21 14:29:31;;;;;;;4.50;1.70;;;;;;;;;;5063606;28;25073;-68
2022/01/21 14:32:01;;;;;;;4.40;2.10;;;;;;;;;;5057378;28;20828;-68
2022/01/21 14:34:33;;;;;;;3.50;1.40;;;;;;;;;;5062367;28;20457;-68
2022/01/21 14:36:59;;;;;;;4.43;2.00;;;;;;;;;;5063886;28;20947;-68
2022/01/21 14:39:26;;;;;;;4.50;2.00;;;;;;;;;;5062553;28;20457;-68
2022/01/21 14:41:53;;;;;;;4.13;1.33;;;;;;;;;;5051881;28;20444;-68
2022/01/21 14:44:39;;;;;;;3.73;1.70;;;;;;;;;;5054112;28;20468;-68
2022/01/21 14:47:10;;;;;;;3.20;1.67;;;;;;;;;;5076466;28;20880;-68
2022/01/21 14:49:36;;;;;;;4.17;1.53;;;;;;;;;;5062286;28;20523;-68
2022/01/21 14:52:33;;;;;;;6.23;1.60;;;;;;;;;;5027439;28;20451;-68
2022/01/21 14:54:51;;;;;;;4.03;1.33;;;;;;;;;;5046104;28;218028;-67
2022/01/21 14:57:22;;;;;;;3.57;1.30;;;;;;;;;;5039047;28;28846;-67
2022/01/21 14:59:52;;;;;;;4.97;1.63;;;;;;;;;;5044295;28;20450;-68
2022/01/21 15:02:29;;;;;;;5.03;1.90;;;;;;;;;;5052988;28;20455;-68
2022/01/21 15:04:56;;;;;;;5.33;1.93;;;;;;;;;;5040776;28;20470;-68
2022/01/21 15:07:26;;;;;;;5.63;2.10;;;;;;;;;;5032870;28;20454;-68
2022/01/21 15:09:54;;;;;;;6.10;2.23;;;;;;;;;;5056251;28;20438;-68
2022/01/21 15:15:30;;;;;;;5.17;2.43;;;;;;;;;;5055793;28;20458;-68
2022/01/21 15:17:57;;;;;;;5.43;1.73;;;;;;;;;;5037024;28;21297;-69
2022/01/21 15:20:24;;;;;;;7.20;1.90;;;;;;;;;;5057244;28;20508;-68
2022/01/21 15:22:51;;;;;;;9.03;2.80;;;;;;;;;;5060197;28;20451;-68
2022/01/21 15:25:17;;;;;;;5.43;2.07;;;;;;;;;;5057455;28;20475;-68
2022/01/21 15:27:44;;;;;;;5.47;2.37;;;;;;;;;;5056329;28;20452;-69
2022/01/21 15:30:11;;;;;;;5.13;2.07;;;;;;;;;;5054246;28;20575;-68
2022/01/21 15:32:43;;;;;;;4.60;1.97;;;;;;;;;;5012584;28;20475;-67
2022/01/21 15:35:11;;;;;;;6.37;2.20;;;;;;;;;;5025385;28;20455;-68
2022/01/21 15:37:40;;;;;;;5.37;1.70;;;;;;;;;;5051070;28;20443;-69
2022/01/21 15:40:10;;;;;;;4.47;1.63;;;;;;;;;;5049989;28;20452;-68
2022/01/21 15:42:43;;;;;;;5.47;1.70;;;;;;;;;;5044074;28;20454;-68
2022/01/21 15:45:22;;;;;;;3.67;1.87;;;;;;;;;;5045580;28;20459;-68
2022/01/21 15:47:57;;;;;;;6.17;2.20;;;;;;;;;;5055859;28;20959;-68
2022/01/21 15:50:26;;;;;;;5.00;2.33;;;;;;;;;;5045265;28;20467;-68
2022/01/21 15:52:53;;;;;;;11.57;5.13;;;;;;;;;;5043664;28;20490;-67
2022/01/21 15:55:41;;;;;;;15.93;5.80;;;;;;;;;;5060941;28;20660;-67
2022/01/21 15:58:09;;;;;;;31.93;11.37;;;;;;;;;;5044960;28;20530;-68
2022/01/21 16:00:38;;;;;;;11.13;3.60;;;;;;;;;;5030734;28;20462;-67
2022/01/21 16:03:06;;;;;;;7.00;2.30;;;;;;;;;;5045231;28;20497;-68
2022/01/21 16:05:37;;;;;;;6.00;2.27;;;;;;;;;;5044725;28;20554;-67
2022/01/21 16:08:05;;;;;;;7.53;2.13;;;;;;;;;;5061641;28;20463;-67
2022/01/21 16:10:35;;;;;;;7.33;2.30;;;;;;;;;;5047035;28;20470;-68
2022/01/21 16:13:18;;;;;;;9.07;3.93;;;;;;;;;;5060229;28;20455;-68
2022/01/21 16:15:45;;;;;;;6.77;3.00;;;;;;;;;;5063419;28;20483;-68
2022/01/21 16:18:14;;;;;;;6.53;2.17;;;;;;;;;;5044726;28;20456;-68
2022/01/21 16:20:46;;;;;;;9.03;3.10;;;;;;;;;;5044230;28;20514;-68
2022/01/21 16:23:21;;;;;;;6.03;1.67;;;;;;;;;;5060925;28;21293;-67
2022/01/21 16:25:52;;;;;;;6.70;2.50;;;;;;;;;;5081717;28;20469;-68